Time;durP1;ratioP1;P1;durP2;ratioP2;P2;SDS_P1;SDS_P2;PMS_P1;PMS_P2;Temp;Humidity;BMP_temperature;BMP_pressure;BME280_temperature;BME280_humidity;BME280_pressure;Samples;Min_cycle;Max_cycle;Signal;HPM_P1;HPM_P2
2021/07/07 00:01:11;;;;;;;4.25;2.05;;;15.50;99.90;;;;;;5032038;28;20070;-55
2021/07/07 00:03:37;;;;;;;10.98;2.67;;;15.50;99.90;;;;;;5030770;28;20029;-55
2021/07/07 00:06:02;;;;;;;6.20;2.58;;;15.50;99.90;;;;;;5032009;28;20021;-55
2021/07/07 00:08:28;;;;;;;9.85;2.05;;;15.40;99.90;;;;;;5031674;28;20478;-55
2021/07/07 00:10:53;;;;;;;6.55;2.40;;;15.40;99.90;;;;;;5031764;28;20482;-56
2021/07/07 00:13:19;;;;;;;4.85;2.40;;;15.40;99.90;;;;;;5031991;28;20094;-55
2021/07/07 00:15:45;;;;;;;8.70;2.50;;;15.40;99.90;;;;;;5031741;28;20054;-55
2021/07/07 00:18:11;;;;;;;8.10;2.25;;;15.50;99.90;;;;;;5031571;28;20036;-55
2021/07/07 00:20:44;;;;;;;10.55;2.58;;;15.50;99.90;;;;;;5031423;28;20188;-55
2021/07/07 00:23:10;;;;;;;;;;;15.50;99.90;;;;;;5032282;28;20056;-55
2021/07/07 00:25:35;;;;;;;4.90;1.80;;;15.50;99.90;;;;;;5031544;28;19936;-55
2021/07/07 00:28:02;;;;;;;6.05;2.13;;;15.50;99.90;;;;;;5031529;28;20029;-55
2021/07/07 00:30:28;;;;;;;8.75;2.40;;;15.50;99.90;;;;;;5031588;28;20242;-55
2021/07/07 00:32:54;;;;;;;3.47;1.88;;;15.50;99.90;;;;;;5031429;28;20041;-55
2021/07/07 00:35:20;;;;;;;5.38;2.20;;;15.40;99.90;;;;;;5031570;28;20539;-55
2021/07/07 00:37:46;;;;;;;4.35;2.33;;;15.40;99.90;;;;;;5031849;28;20105;-55
2021/07/07 00:40:13;;;;;;;6.60;2.13;;;15.30;99.90;;;;;;5029972;28;20410;-55
2021/07/07 00:42:39;;;;;;;5.55;2.35;;;15.20;99.90;;;;;;5029518;28;20052;-56
2021/07/07 00:45:05;;;;;;;6.20;2.78;;;15.20;99.90;;;;;;5031555;28;20428;-56
2021/07/07 00:47:30;;;;;;;7.63;2.80;;;15.20;99.90;;;;;;5031358;28;20049;-55
2021/07/07 00:49:57;;;;;;;5.30;2.45;;;15.10;99.90;;;;;;5031376;28;20025;-55
2021/07/07 00:52:23;;;;;;;6.05;2.65;;;15.10;99.90;;;;;;5031388;28;20026;-55
2021/07/07 00:54:49;;;;;;;7.68;2.85;;;15.10;99.90;;;;;;5031253;28;20489;-55
2021/07/07 00:57:16;;;;;;;6.40;2.60;;;15.10;99.90;;;;;;5030862;28;20044;-55
2021/07/07 00:59:45;;;;;;;9.27;2.83;;;15.10;99.90;;;;;;5031106;28;20386;-56
2021/07/07 01:02:11;;;;;;;9.20;3.33;;;15.20;99.90;;;;;;5029877;28;20022;-55
2021/07/07 01:04:37;;;;;;;6.10;2.70;;;15.20;99.90;;;;;;5031165;28;20108;-56
2021/07/07 01:07:03;;;;;;;6.35;2.75;;;15.20;99.90;;;;;;5031188;28;20101;-56
2021/07/07 01:09:29;;;;;;;13.20;2.72;;;15.20;99.90;;;;;;5031145;28;20029;-56
2021/07/07 01:11:55;;;;;;;5.82;2.88;;;15.20;99.90;;;;;;5029695;28;20117;-56
2021/07/07 01:14:20;;;;;;;7.70;2.70;;;15.20;99.90;;;;;;5029953;28;20029;-56
2021/07/07 01:16:46;;;;;;;10.25;3.13;;;15.20;99.90;;;;;;5031212;28;20037;-55
2021/07/07 01:19:13;;;;;;;7.47;2.78;;;15.10;99.90;;;;;;5029867;28;20021;-56
2021/07/07 01:21:51;;;;;;;5.35;2.72;;;15.20;99.90;;;;;;5031187;28;20289;-56
2021/07/07 01:24:19;;;;;;;9.02;3.00;;;15.20;99.90;;;;;;5031150;28;20498;-55
2021/07/07 01:26:45;;;;;;;10.80;3.05;;;15.20;99.90;;;;;;5030987;28;20095;-55
2021/07/07 01:29:12;;;;;;;6.60;2.90;;;15.20;99.90;;;;;;5031107;28;20132;-56
2021/07/07 01:31:39;;;;;;;6.53;2.70;;;15.20;99.90;;;;;;5030811;28;20516;-56
2021/07/07 01:34:06;;;;;;;6.22;2.95;;;15.20;99.90;;;;;;5030694;28;20045;-56
2021/07/07 01:36:33;;;;;;;4.65;2.40;;;15.20;99.90;;;;;;5030736;28;20105;-55
2021/07/07 01:38:59;;;;;;;6.45;2.88;;;15.20;99.90;;;;;;5031016;28;20056;-55
2021/07/07 01:41:25;;;;;;;6.28;3.20;;;15.20;99.90;;;;;;5031031;28;20455;-55
2021/07/07 01:43:52;;;;;;;8.40;3.35;;;15.20;99.90;;;;;;5031148;28;20512;-55
2021/07/07 01:46:18;;;;;;;6.82;2.70;;;15.20;99.90;;;;;;5030928;28;20068;-55
2021/07/07 01:48:43;;;;;;;10.30;3.38;;;15.20;99.90;;;;;;5030912;28;20014;-54
2021/07/07 01:51:09;;;;;;;9.45;3.10;;;15.20;99.90;;;;;;5030885;28;20466;-54
2021/07/07 01:53:35;;;;;;;8.68;3.13;;;15.10;99.90;;;;;;5033538;28;20029;-55
2021/07/07 01:56:00;;;;;;;7.63;2.90;;;15.10;99.90;;;;;;5034514;28;20025;-56
2021/07/07 01:58:26;;;;;;;6.00;2.90;;;15.10;99.90;;;;;;5032934;28;20029;-55
2021/07/07 02:00:52;;;;;;;10.55;3.38;;;15.10;99.90;;;;;;5034112;28;20383;-55
2021/07/07 02:03:18;;;;;;;7.28;2.58;;;15.20;99.90;;;;;;5034414;28;20068;-55
2021/07/07 02:05:43;;;;;;;8.35;3.10;;;15.20;99.90;;;;;;5034359;28;20483;-55
2021/07/07 02:08:10;;;;;;;7.15;2.95;;;15.20;99.90;;;;;;5034081;28;20104;-55
2021/07/07 02:10:37;;;;;;;9.77;3.40;;;15.20;99.90;;;;;;5034163;28;20100;-55
2021/07/07 02:13:05;;;;;;;6.00;3.13;;;15.10;99.90;;;;;;5032770;28;20425;-55
2021/07/07 02:15:33;;;;;;;8.13;3.08;;;15.10;99.90;;;;;;5034442;28;20037;-55
2021/07/07 02:18:00;;;;;;;7.20;3.35;;;15.10;99.90;;;;;;5033979;28;20032;-55
2021/07/07 02:20:29;;;;;;;7.50;3.15;;;15.10;99.90;;;;;;5033929;28;20025;-55
2021/07/07 02:22:55;;;;;;;5.78;3.17;;;15.10;99.90;;;;;;5033818;28;20024;-55
2021/07/07 02:25:28;;;;;;;7.07;3.20;;;15.10;99.90;;;;;;5033899;28;20421;-55
2021/07/07 02:27:55;;;;;;;7.55;3.03;;;15.00;99.90;;;;;;5034112;28;20564;-55
2021/07/07 02:30:23;;;;;;;10.70;3.47;;;15.00;99.90;;;;;;5034017;28;20079;-56
2021/07/07 02:32:50;;;;;;;7.70;3.85;;;14.90;99.90;;;;;;5033411;28;20045;-55
2021/07/07 02:35:21;;;;;;;9.65;4.43;;;14.90;99.90;;;;;;5033823;28;20410;-55
2021/07/07 02:37:52;;;;;;;12.02;4.15;;;14.90;99.90;;;;;;5033458;28;20060;-56
2021/07/07 02:40:19;;;;;;;12.40;6.88;;;14.90;99.90;;;;;;5033601;28;20029;-55
2021/07/07 02:42:45;;;;;;;15.90;8.20;;;14.90;99.90;;;;;;5033530;28;20021;-55
2021/07/07 02:45:11;;;;;;;11.48;8.15;;;15.00;99.90;;;;;;5033888;28;20374;-55
2021/07/07 02:47:39;;;;;;;11.95;8.52;;;15.00;99.90;;;;;;5033598;28;20029;-56
2021/07/07 02:50:07;;;;;;;15.25;9.40;;;15.00;99.90;;;;;;5032008;28;20061;-55
2021/07/07 02:52:32;;;;;;;11.45;9.60;;;15.10;99.90;;;;;;5033596;28;20025;-55
2021/07/07 02:54:58;;;;;;;13.35;9.55;;;15.10;99.90;;;;;;5033471;28;20034;-56
2021/07/07 02:57:23;;;;;;;13.80;10.93;;;15.20;99.90;;;;;;5033090;28;20486;-55
2021/07/07 02:59:49;;;;;;;19.63;12.10;;;15.20;99.90;;;;;;5033372;28;20029;-55
2021/07/07 03:02:14;;;;;;;14.93;11.15;;;15.20;99.90;;;;;;5033190;28;20128;-55
2021/07/07 03:04:40;;;;;;;14.25;11.07;;;15.20;99.90;;;;;;5032474;28;20355;-55
2021/07/07 03:07:06;;;;;;;14.07;11.15;;;15.30;99.90;;;;;;5033216;28;20045;-55
2021/07/07 03:09:32;;;;;;;12.90;11.10;;;15.30;99.90;;;;;;5031929;28;20026;-56
2021/07/07 03:11:58;;;;;;;14.05;11.48;;;15.20;99.90;;;;;;5033173;28;20478;-55
2021/07/07 03:14:23;;;;;;;15.57;9.85;;;15.20;99.90;;;;;;5033000;28;20029;-55
2021/07/07 03:16:49;;;;;;;13.75;10.43;;;15.30;99.90;;;;;;5032848;28;20021;-55
2021/07/07 03:19:15;;;;;;;14.68;9.07;;;15.30;99.90;;;;;;5032849;28;20057;-55
2021/07/07 03:21:40;;;;;;;15.30;7.80;;;15.30;99.90;;;;;;5032620;28;20021;-55
2021/07/07 03:24:07;;;;;;;11.52;7.90;;;15.30;99.90;;;;;;5032939;28;20029;-55
2021/07/07 03:26:33;;;;;;;9.57;7.00;;;15.40;99.90;;;;;;5032637;28;20100;-55
2021/07/07 03:28:58;;;;;;;12.07;7.80;;;15.30;99.90;;;;;;5032836;28;20104;-55
2021/07/07 03:31:24;;;;;;;12.10;8.20;;;15.30;99.90;;;;;;5032647;28;20036;-55
2021/07/07 03:33:50;;;;;;;9.15;6.55;;;15.20;99.90;;;;;;5032475;28;20087;-56
2021/07/07 03:36:18;;;;;;;10.98;5.60;;;15.20;99.90;;;;;;5030996;28;20564;-55
2021/07/07 03:38:43;;;;;;;9.70;5.13;;;15.10;99.90;;;;;;5032629;28;20057;-55
2021/07/07 03:41:09;;;;;;;11.70;3.97;;;15.00;99.90;;;;;;5031482;28;20056;-55
2021/07/07 03:43:35;;;;;;;8.93;3.67;;;15.10;99.90;;;;;;5032509;28;20022;-55
2021/07/07 03:46:00;;;;;;;8.20;3.60;;;15.00;99.90;;;;;;5032345;28;20018;-55
2021/07/07 03:48:26;;;;;;;7.85;3.47;;;15.00;99.90;;;;;;5032428;28;20033;-55
2021/07/07 03:50:52;;;;;;;5.90;3.13;;;15.00;99.90;;;;;;5032077;28;20083;-56
2021/07/07 03:53:17;;;;;;;11.20;3.92;;;15.00;99.90;;;;;;5031080;28;20081;-55
2021/07/07 03:55:43;;;;;;;10.52;3.40;;;15.00;99.90;;;;;;5032085;28;20425;-55
2021/07/07 03:58:08;;;;;;;9.95;3.70;;;14.90;99.90;;;;;;5032278;28;20033;-56
2021/07/07 04:00:34;;;;;;;11.13;3.47;;;15.00;99.90;;;;;;5032142;28;20371;-55
2021/07/07 04:03:00;;;;;;;7.30;3.60;;;15.00;99.90;;;;;;5031949;28;20163;-55
2021/07/07 04:05:26;;;;;;;9.30;2.67;;;14.90;99.90;;;;;;5032010;28;20017;-55
2021/07/07 04:07:52;;;;;;;8.63;2.90;;;14.90;99.90;;;;;;5030797;28;20508;-55
2021/07/07 04:10:18;;;;;;;15.15;3.60;;;14.90;99.90;;;;;;5032308;28;20116;-55
2021/07/07 04:12:45;;;;;;;9.90;3.60;;;15.00;99.90;;;;;;5030522;28;20063;-55
2021/07/07 04:15:12;;;;;;;6.90;2.70;;;15.00;99.90;;;;;;5031945;28;20025;-55
2021/07/07 04:17:38;;;;;;;5.80;2.88;;;15.10;99.90;;;;;;5031662;28;20028;-55
2021/07/07 04:20:05;;;;;;;9.30;3.05;;;15.20;99.90;;;;;;5031672;28;20550;-55
2021/07/07 04:22:31;;;;;;;8.30;2.72;;;15.20;99.90;;;;;;5030251;28;20025;-55
2021/07/07 04:24:57;;;;;;;8.73;3.10;;;15.20;99.90;;;;;;5031714;28;20087;-55
2021/07/07 04:27:22;;;;;;;9.13;3.17;;;15.20;99.90;;;;;;5031628;28;20096;-55
2021/07/07 04:29:48;;;;;;;7.53;2.70;;;15.30;99.90;;;;;;5031616;28;20022;-55
2021/07/07 04:32:16;;;;;;;9.35;3.03;;;15.30;99.90;;;;;;5031539;28;20041;-56
2021/07/07 04:34:43;;;;;;;5.80;2.80;;;15.30;99.90;;;;;;5031663;28;20112;-55
2021/07/07 04:37:08;;;;;;;8.48;2.67;;;15.40;99.90;;;;;;5030191;28;20036;-55
2021/07/07 04:39:34;;;;;;;5.85;2.92;;;15.50;99.90;;;;;;5031702;28;20025;-55
2021/07/07 04:42:00;;;;;;;5.72;2.60;;;15.50;99.90;;;;;;5031498;28;20463;-54
2021/07/07 04:44:25;;;;;;;10.35;3.00;;;15.60;99.90;;;;;;5030285;28;20060;-55
2021/07/07 04:46:51;;;;;;;7.05;2.40;;;15.60;99.90;;;;;;5031550;28;20061;-55
2021/07/07 04:49:17;;;;;;;8.02;3.00;;;15.60;99.90;;;;;;5029912;28;20040;-55
2021/07/07 04:51:42;;;;;;;7.15;2.60;;;15.60;99.90;;;;;;5031259;28;20025;-55
2021/07/07 04:54:08;;;;;;;8.73;2.90;;;15.70;99.90;;;;;;5030079;28;20070;-55
2021/07/07 04:56:34;;;;;;;10.65;2.90;;;15.70;99.90;;;;;;5029848;28;20386;-55
2021/07/07 04:58:59;;;;;;;9.45;3.53;;;15.70;99.90;;;;;;5031147;28;20076;-55
2021/07/07 05:01:25;;;;;;;8.10;3.05;;;15.80;99.90;;;;;;5031053;28;20106;-55
2021/07/07 05:03:50;;;;;;;10.90;2.78;;;15.80;99.90;;;;;;5030063;28;20049;-55
2021/07/07 05:06:16;;;;;;;8.25;2.63;;;15.90;99.90;;;;;;5031314;28;20025;-56
2021/07/07 05:08:42;;;;;;;10.52;3.08;;;15.90;99.90;;;;;;5031060;28;20049;-55
2021/07/07 05:11:09;;;;;;;11.50;2.90;;;16.00;99.90;;;;;;5029762;28;20061;-55
2021/07/07 05:13:34;;;;;;;8.27;3.10;;;16.00;99.90;;;;;;5031298;28;20033;-55
2021/07/07 05:16:00;;;;;;;8.32;2.75;;;16.00;99.90;;;;;;5030955;28;20029;-56
2021/07/07 05:18:25;;;;;;;8.43;2.70;;;16.00;99.90;;;;;;5030682;28;20375;-55
2021/07/07 05:20:51;;;;;;;9.38;2.83;;;16.00;99.90;;;;;;5031074;28;20529;-55
2021/07/07 05:23:17;;;;;;;12.25;2.80;;;16.00;99.90;;;;;;5031091;28;20060;-56
2021/07/07 05:25:44;;;;;;;7.00;2.53;;;16.10;99.90;;;;;;5031086;28;20355;-55
2021/07/07 05:28:11;;;;;;;8.70;2.60;;;16.10;99.90;;;;;;5033421;28;20462;-55
2021/07/07 05:30:38;;;;;;;10.35;2.97;;;16.20;99.90;;;;;;5033517;28;20029;-55
2021/07/07 05:33:05;;;;;;;8.18;2.55;;;16.20;99.90;;;;;;5034566;28;20144;-55
2021/07/07 05:35:30;;;;;;;8.00;3.45;;;16.10;99.90;;;;;;5034735;28;20033;-55
2021/07/07 05:37:57;;;;;;;6.70;3.22;;;16.10;99.90;;;;;;5034716;28;20076;-55
2021/07/07 05:40:23;;;;;;;10.77;3.25;;;16.10;99.90;;;;;;5034652;28;20109;-55
2021/07/07 05:42:52;;;;;;;6.78;2.95;;;16.00;99.90;;;;;;5033289;28;20084;-54
2021/07/07 05:45:20;;;;;;;9.00;2.60;;;15.90;99.90;;;;;;5035214;28;20013;-54
2021/07/07 05:47:45;;;;;;;7.00;2.70;;;15.80;99.90;;;;;;5033467;28;20026;-55
2021/07/07 05:50:11;;;;;;;12.68;3.42;;;15.90;99.90;;;;;;5034584;28;20033;-54
2021/07/07 05:52:37;;;;;;;16.55;3.15;;;15.90;99.90;;;;;;5034838;28;20022;-55
2021/07/07 05:55:03;;;;;;;5.97;2.63;;;16.00;99.90;;;;;;5034990;28;20029;-55
2021/07/07 05:57:37;;;;;;;10.77;3.08;;;16.10;99.90;;;;;;5034508;28;20026;-54
2021/07/07 06:00:14;;;;;;;7.32;2.33;;;16.10;99.90;;;;;;5034466;28;20026;-55
2021/07/07 06:02:41;;;;;;;9.52;2.92;;;16.20;99.90;;;;;;5034321;28;20051;-56
2021/07/07 06:05:09;;;;;;;7.07;2.60;;;16.30;99.90;;;;;;5034370;28;20021;-55
2021/07/07 06:07:35;;;;;;;11.10;3.15;;;16.30;99.90;;;;;;5041692;28;20431;-55
2021/07/07 06:10:01;;;;;;;10.40;2.83;;;16.40;99.90;;;;;;5033758;28;20112;-55
2021/07/07 06:12:26;;;;;;;7.72;3.08;;;16.40;99.90;;;;;;5033255;28;20119;-55
2021/07/07 06:14:52;;;;;;;7.57;3.00;;;16.30;99.90;;;;;;5032934;28;20025;-55
2021/07/07 06:17:18;;;;;;;8.73;2.47;;;16.50;99.90;;;;;;5028178;28;20057;-55
2021/07/07 06:19:43;;;;;;;8.98;2.97;;;16.70;99.90;;;;;;5026819;28;20030;-55
2021/07/07 06:22:09;;;;;;;13.57;2.95;;;16.80;99.90;;;;;;5029083;28;20053;-55
2021/07/07 06:24:35;;;;;;;10.48;2.50;;;17.00;99.90;;;;;;5027093;28;20056;-55
2021/07/07 06:27:00;;;;;;;6.78;2.45;;;17.30;99.90;;;;;;5026267;28;20045;-55
2021/07/07 06:29:26;;;;;;;6.75;2.88;;;17.30;99.90;;;;;;5013679;28;20036;-55
2021/07/07 06:31:51;;;;;;;9.85;2.78;;;17.20;99.90;;;;;;5016692;28;20030;-55
2021/07/07 06:34:17;;;;;;;11.48;3.10;;;17.10;99.90;;;;;;5018643;28;20445;-56
2021/07/07 06:36:42;;;;;;;6.90;2.80;;;17.10;99.90;;;;;;5029054;28;20475;-56
2021/07/07 06:39:08;;;;;;;10.70;2.58;;;17.00;99.90;;;;;;5020934;28;20022;-55
2021/07/07 06:41:34;;;;;;;8.52;3.30;;;17.10;99.90;;;;;;5023658;28;20033;-55
2021/07/07 06:44:00;;;;;;;8.48;3.28;;;17.10;99.90;;;;;;5026429;28;20109;-55
2021/07/07 06:46:25;;;;;;;9.02;2.85;;;17.50;99.90;;;;;;5022392;28;20036;-55
2021/07/07 06:48:51;;;;;;;9.02;2.30;;;18.40;99.90;;;;;;5032114;28;20384;-56
2021/07/07 06:51:17;;;;;;;6.18;1.98;;;19.70;99.90;;;;;;5023831;28;20045;-55
2021/07/07 06:53:42;;;;;;;8.90;2.25;;;20.20;99.90;;;;;;5022179;28;20091;-55
2021/07/07 06:56:08;;;;;;;7.93;2.08;;;20.60;99.90;;;;;;5028773;28;20085;-54
2021/07/07 06:58:34;;;;;;;7.88;2.78;;;19.90;99.90;;;;;;5032157;28;20525;-56
2021/07/07 07:00:59;;;;;;;8.00;2.70;;;19.30;99.90;;;;;;5028363;28;20029;-55
2021/07/07 07:03:25;;;;;;;9.55;2.58;;;19.90;99.90;;;;;;5014753;28;20374;-55
2021/07/07 07:05:51;;;;;;;6.07;2.10;;;19.90;99.90;;;;;;5032710;28;20462;-56
2021/07/07 07:08:18;;;;;;;10.48;2.45;;;20.30;99.90;;;;;;5030327;28;20184;-55
2021/07/07 07:10:44;;;;;;;6.57;2.22;;;20.30;99.90;;;;;;5030576;28;20557;-55
2021/07/07 07:13:11;;;;;;;7.53;2.22;;;20.20;99.90;;;;;;5031682;28;20486;-55
2021/07/07 07:15:36;;;;;;;5.90;2.08;;;20.40;99.90;;;;;;5030960;28;20037;-55
2021/07/07 07:18:02;;;;;;;6.82;2.17;;;20.80;99.90;;;;;;5028194;28;20080;-54
2021/07/07 07:20:29;;;;;;;7.20;2.55;;;21.40;99.90;;;;;;5030892;28;20048;-56
2021/07/07 07:22:59;;;;;;;6.68;1.88;;;22.00;99.90;;;;;;5032321;28;20498;-54
2021/07/07 07:25:25;;;;;;;7.93;2.58;;;22.50;99.90;;;;;;5027701;28;20475;-54
2021/07/07 07:27:53;;;;;;;6.38;2.20;;;22.30;99.90;;;;;;5024597;28;20063;-54
2021/07/07 07:30:19;;;;;;;6.85;2.22;;;22.20;99.90;;;;;;5027067;28;20447;-54
2021/07/07 07:32:49;;;;;;;7.03;1.90;;;21.70;99.90;;;;;;5029097;28;20337;-54
2021/07/07 07:35:17;;;;;;;4.38;1.65;;;22.10;99.90;;;;;;5025736;28;20038;-55
2021/07/07 07:37:49;;;;;;;9.15;2.30;;;22.40;99.90;;;;;;5028861;28;20040;-55
2021/07/07 07:40:21;;;;;;;5.88;2.10;;;21.00;99.90;;;;;;5028801;28;20049;-55
2021/07/07 07:42:47;;;;;;;5.20;1.95;;;20.60;99.90;;;;;;5027923;28;20108;-55
2021/07/07 07:45:14;;;;;;;6.60;1.95;;;20.60;99.90;;;;;;5029145;28;20142;-56
2021/07/07 07:47:41;;;;;;;4.50;1.90;;;20.20;99.90;;;;;;5019534;28;20054;-55
2021/07/07 07:50:11;;;;;;;5.70;1.98;;;19.80;99.90;;;;;;5019431;28;20037;-55
2021/07/07 07:52:38;;;;;;;4.25;1.90;;;19.80;99.90;;;;;;5029111;28;20037;-55
2021/07/07 07:55:04;;;;;;;5.47;1.73;;;20.70;99.90;;;;;;5032046;28;20030;-55
2021/07/07 07:57:35;;;;;;;6.82;2.35;;;21.40;99.90;;;;;;5028220;28;20083;-55
2021/07/07 08:00:06;;;;;;;10.07;2.35;;;21.90;99.90;;;;;;5027206;28;20034;-55
2021/07/07 08:02:32;;;;;;;5.88;2.00;;;22.10;99.90;;;;;;5020078;28;20091;-55
2021/07/07 08:04:58;;;;;;;7.93;2.30;;;21.90;99.90;;;;;;5025307;28;20021;-54
2021/07/07 08:07:27;;;;;;;5.80;1.95;;;21.70;99.90;;;;;;5028569;28;20036;-55
2021/07/07 08:09:53;;;;;;;9.85;2.33;;;21.90;99.90;;;;;;5026295;28;20108;-55
2021/07/07 08:12:18;;;;;;;10.35;2.20;;;22.50;99.90;;;;;;5030913;28;20025;-55
2021/07/07 08:14:44;;;;;;;5.10;2.08;;;23.30;99.90;;;;;;5031282;28;20033;-55
2021/07/07 08:17:10;;;;;;;6.18;2.00;;;22.90;99.90;;;;;;5026930;28;20442;-55
2021/07/07 08:19:35;;;;;;;6.03;1.90;;;22.50;99.90;;;;;;5030463;28;20034;-55
2021/07/07 08:22:01;;;;;;;7.15;2.53;;;22.10;99.90;;;;;;5030105;28;20465;-55
2021/07/07 08:24:26;;;;;;;5.88;1.80;;;21.80;99.90;;;;;;5029939;28;20041;-55
2021/07/07 08:26:54;;;;;;;4.93;1.92;;;22.50;99.90;;;;;;5029522;28;20493;-54
2021/07/07 08:29:20;;;;;;;5.63;2.03;;;22.60;99.90;;;;;;5030321;28;20033;-55
2021/07/07 08:31:46;;;;;;;3.45;2.00;;;22.30;99.90;;;;;;5031927;28;20528;-54
2021/07/07 08:34:12;;;;;;;5.95;2.47;;;21.30;99.90;;;;;;5025794;28;20041;-54
2021/07/07 08:36:37;;;;;;;3.80;1.83;;;21.40;99.90;;;;;;5030374;28;20025;-54
2021/07/07 08:39:04;;;;;;;4.93;1.88;;;21.50;99.90;;;;;;5021679;28;20049;-54
2021/07/07 08:41:30;;;;;;;5.25;1.92;;;21.70;99.90;;;;;;5018409;28;20029;-54
2021/07/07 08:43:56;;;;;;;7.05;2.13;;;21.70;99.90;;;;;;5024634;28;20437;-55
2021/07/07 08:46:22;;;;;;;5.82;2.20;;;21.20;99.90;;;;;;5028871;28;20017;-55
2021/07/07 08:48:47;;;;;;;4.82;2.50;;;20.70;99.90;;;;;;5029354;28;20029;-55
2021/07/07 08:51:13;;;;;;;5.10;2.10;;;20.80;99.90;;;;;;5030024;28;20391;-54
2021/07/07 08:53:41;;;;;;;7.65;2.40;;;21.40;99.90;;;;;;5030393;28;20029;-54
2021/07/07 08:56:07;;;;;;;7.50;2.17;;;21.50;99.90;;;;;;5029480;28;20029;-55
2021/07/07 08:58:32;;;;;;;5.75;1.98;;;22.00;99.90;;;;;;5031213;28;20116;-54
2021/07/07 09:00:59;;;;;;;6.55;2.08;;;22.50;99.90;;;;;;5029495;28;20057;-54
2021/07/07 09:03:25;;;;;;;6.75;2.38;;;22.90;99.90;;;;;;5029222;28;20033;-54
2021/07/07 09:05:51;;;;;;;6.90;1.60;;;23.10;99.90;;;;;;5028402;28;20570;-55
2021/07/07 09:08:36;;;;;;;4.28;2.10;;;23.20;99.90;;;;;;5027456;28;20076;-55
2021/07/07 09:11:17;;;;;;;6.53;1.98;;;23.30;99.90;;;;;;5029745;28;20061;-55
2021/07/07 09:13:44;;;;;;;5.13;1.83;;;23.20;99.90;;;;;;5025591;28;20111;-55
2021/07/07 09:16:16;;;;;;;4.25;1.60;;;23.50;99.90;;;;;;5023718;28;20341;-54
2021/07/07 09:18:42;;;;;;;4.90;1.70;;;23.40;99.90;;;;;;5026921;28;20540;-55
2021/07/07 09:21:28;;;;;;;3.83;2.03;;;23.30;99.90;;;;;;5025764;28;20100;-55
2021/07/07 09:23:55;;;;;;;4.57;2.08;;;22.60;99.90;;;;;;5028268;28;20014;-55
2021/07/07 09:26:29;;;;;;;8.43;2.03;;;21.80;99.90;;;;;;5024402;28;20021;-54
2021/07/07 09:28:55;;;;;;;6.60;2.15;;;21.20;99.90;;;;;;5028017;28;20463;-54
2021/07/07 09:31:32;;;;;;;6.22;2.40;;;20.80;99.90;;;;;;5025668;28;20250;-54
2021/07/07 09:34:18;;;;;;;3.33;1.95;;;20.60;99.90;;;;;;5024567;28;20057;-55
2021/07/07 09:36:47;;;;;;;4.40;2.20;;;20.60;99.90;;;;;;5026555;28;20494;-55
2021/07/07 09:39:15;;;;;;;4.97;2.35;;;20.50;99.90;;;;;;5030825;28;20521;-55
2021/07/07 09:41:42;;;;;;;4.90;2.30;;;20.40;99.90;;;;;;5030633;28;20486;-55
2021/07/07 09:44:08;;;;;;;5.70;2.10;;;21.30;99.90;;;;;;5024246;28;20060;-55
2021/07/07 09:46:35;;;;;;;3.92;2.15;;;22.50;99.90;;;;;;5013213;28;20061;-55
2021/07/07 09:49:02;;;;;;;4.70;1.85;;;23.30;99.90;;;;;;5021156;28;20163;-55
2021/07/07 09:51:28;;;;;;;7.43;2.22;;;23.20;99.90;;;;;;5014042;28;20034;-56
2021/07/07 09:53:53;;;;;;;5.25;2.03;;;23.00;99.90;;;;;;5027217;28;20036;-54
2021/07/07 09:56:19;;;;;;;5.90;2.10;;;22.70;99.90;;;;;;5023714;28;20035;-54
2021/07/07 09:58:45;;;;;;;4.18;2.00;;;23.30;99.90;;;;;;5022000;28;20369;-53
2021/07/07 10:01:11;;;;;;;5.78;2.00;;;23.50;99.90;;;;;;5015864;28;20494;-55
2021/07/07 10:03:37;;;;;;;4.43;1.73;;;23.00;99.90;;;;;;5011082;28;20415;-55
2021/07/07 10:06:03;;;;;;;5.57;2.22;;;22.50;99.90;;;;;;5023031;28;20025;-55
2021/07/07 10:08:31;;;;;;;7.53;2.33;;;22.10;99.90;;;;;;5026655;28;20103;-55
2021/07/07 10:10:58;;;;;;;3.58;1.88;;;21.80;99.90;;;;;;5029900;28;20026;-55
2021/07/07 10:13:26;;;;;;;5.80;2.05;;;22.90;99.90;;;;;;5030887;28;20029;-55
2021/07/07 10:15:53;;;;;;;6.05;2.20;;;23.20;99.90;;;;;;5033618;28;20513;-55
2021/07/07 10:18:19;;;;;;;5.35;2.00;;;22.80;99.90;;;;;;5033572;28;20029;-55
2021/07/07 10:20:46;;;;;;;7.05;2.10;;;22.20;99.90;;;;;;5033670;28;20018;-55
2021/07/07 10:23:13;;;;;;;4.70;1.90;;;22.30;99.90;;;;;;5033846;28;20044;-55
2021/07/07 10:25:41;;;;;;;4.95;2.03;;;23.30;99.90;;;;;;5033507;28;20025;-55
2021/07/07 10:28:10;;;;;;;4.38;2.10;;;23.90;99.90;;;;;;5033590;28;20029;-55
2021/07/07 10:30:50;;;;;;;4.45;1.88;;;23.10;99.90;;;;;;5033369;28;20600;-55
2021/07/07 10:33:17;;;;;;;5.97;2.55;;;22.60;99.90;;;;;;5032488;28;20038;-54
2021/07/07 10:35:43;;;;;;;5.88;2.33;;;22.50;99.90;;;;;;5022198;28;20109;-54
2021/07/07 10:38:09;;;;;;;9.07;2.33;;;22.30;99.90;;;;;;5027901;28;20157;-54
2021/07/07 10:40:39;;;;;;;5.65;2.28;;;21.80;99.90;;;;;;5032044;28;20031;-54
2021/07/07 10:43:05;;;;;;;5.63;2.17;;;21.60;99.90;;;;;;5032463;28;20017;-54
2021/07/07 10:45:40;;;;;;;11.32;2.70;;;21.20;99.90;;;;;;5030187;28;20101;-54
2021/07/07 10:48:18;;;;;;;8.13;2.67;;;21.20;99.90;;;;;;5032398;28;20649;-55
2021/07/07 10:50:43;;;;;;;4.95;2.05;;;21.10;99.90;;;;;;5033022;28;20025;-55
2021/07/07 10:53:35;;;;;;;5.93;2.30;;;21.60;99.90;;;;;;5031682;28;20144;-55
2021/07/07 10:56:06;;;;;;;5.90;2.47;;;22.50;99.90;;;;;;5031700;28;20022;-55
2021/07/07 10:58:36;;;;;;;5.50;2.10;;;23.10;99.90;;;;;;5030509;28;20029;-55
2021/07/07 11:01:35;;;;;;;5.43;1.80;;;23.90;99.90;;;;;;5030688;28;20117;-55
2021/07/07 11:04:03;;;;;;;5.72;2.00;;;23.90;99.90;;;;;;5026312;28;20128;-55
2021/07/07 11:06:37;;;;;;;4.18;1.92;;;23.40;99.90;;;;;;5031687;28;20269;-55
2021/07/07 11:09:08;;;;;;;4.10;2.15;;;23.50;99.90;;;;;;5032223;28;20483;-55
2021/07/07 11:11:35;;;;;;;4.93;1.75;;;24.30;99.90;;;;;;5032533;28;20036;-55
2021/07/07 11:14:11;;;;;;;5.55;1.92;;;25.30;99.90;;;;;;5032653;28;20035;-55
2021/07/07 11:16:45;;;;;;;4.22;1.90;;;24.90;99.90;;;;;;5028554;28;20486;-55
2021/07/07 11:19:36;;;;;;;8.20;2.00;;;25.00;99.90;;;;;;5032280;28;20177;-55
2021/07/07 11:22:02;;;;;;;3.57;1.53;;;25.60;99.90;;;;;;5030546;28;20041;-55
2021/07/07 11:24:28;;;;;;;5.25;2.05;;;26.30;99.90;;;;;;5031366;28;20021;-55
2021/07/07 11:26:56;;;;;;;3.50;1.75;;;26.00;99.90;;;;;;5031565;28;20083;-55
2021/07/07 11:29:22;;;;;;;5.15;1.73;;;26.00;99.90;;;;;;5031975;28;20379;-55
2021/07/07 11:31:48;;;;;;;4.32;1.70;;;25.70;99.90;;;;;;5026859;28;20044;-55
2021/07/07 11:34:14;;;;;;;2.05;1.25;;;25.40;99.20;;;;;;5032191;28;20091;-55
2021/07/07 11:36:40;;;;;;;8.88;2.42;;;24.00;99.90;;;;;;5032315;28;20064;-55
2021/07/07 11:39:07;;;;;;;3.40;1.65;;;23.30;99.90;;;;;;5032351;28;20033;-54
2021/07/07 11:41:34;;;;;;;4.03;1.73;;;24.00;99.90;;;;;;5032320;28;20075;-55
2021/07/07 11:44:00;;;;;;;6.68;1.70;;;25.60;99.90;;;;;;5032632;28;20057;-55
2021/07/07 11:46:31;;;;;;;4.15;1.50;;;25.90;99.20;;;;;;5027767;28;20118;-55
2021/07/07 11:49:08;;;;;;;5.10;1.55;;;25.10;99.60;;;;;;5030663;28;20036;-55
2021/07/07 11:51:38;;;;;;;7.68;1.90;;;24.40;99.90;;;;;;5031057;28;20031;-55
2021/07/07 11:54:04;;;;;;;2.50;1.60;;;24.00;99.90;;;;;;5031555;28;20437;-55
2021/07/07 11:56:30;;;;;;;4.90;1.77;;;24.00;99.90;;;;;;5032021;28;20556;-55
2021/07/07 11:58:57;;;;;;;3.90;1.80;;;23.60;99.90;;;;;;5032044;28;20111;-55
2021/07/07 12:01:25;;;;;;;3.20;1.73;;;23.60;99.90;;;;;;5031984;28;20553;-55
2021/07/07 12:03:59;;;;;;;5.25;1.65;;;24.00;99.90;;;;;;5031953;28;20025;-54
2021/07/07 12:06:38;;;;;;;6.28;1.70;;;23.50;99.90;;;;;;5031755;28;20076;-55
2021/07/07 12:09:18;;;;;;;3.92;1.67;;;23.20;99.90;;;;;;5031977;28;20029;-54
2021/07/07 12:12:01;;;;;;;6.28;1.80;;;23.60;99.90;;;;;;5031937;28;20099;-54
2021/07/07 12:14:38;;;;;;;3.25;1.70;;;23.50;99.90;;;;;;5031924;28;20059;-54
2021/07/07 12:17:05;;;;;;;4.38;1.65;;;23.50;99.90;;;;;;5030535;28;20049;-55
2021/07/07 12:19:33;;;;;;;3.97;1.60;;;23.30;99.90;;;;;;5031856;28;20044;-55
2021/07/07 12:22:07;;;;;;;3.88;1.58;;;23.80;99.90;;;;;;5031597;28;20107;-55
2021/07/07 12:24:39;;;;;;;2.92;1.60;;;23.80;99.90;;;;;;5031643;28;20017;-55
2021/07/07 12:27:06;;;;;;;6.07;1.75;;;23.40;99.90;;;;;;5031638;28;20040;-55
2021/07/07 12:29:35;;;;;;;6.20;2.00;;;22.90;99.90;;;;;;5031999;28;20022;-55
2021/07/07 12:32:27;;;;;;;4.78;1.92;;;22.90;99.90;;;;;;5031266;28;20021;-55
2021/07/07 12:34:59;;;;;;;3.27;2.13;;;22.70;99.90;;;;;;5030698;28;20218;-55
2021/07/07 12:37:25;;;;;;;4.82;2.08;;;23.20;99.90;;;;;;5030574;28;20034;-55
2021/07/07 12:39:55;;;;;;;5.95;1.70;;;23.70;99.90;;;;;;5031407;28;20030;-56
2021/07/07 12:42:27;;;;;;;4.35;1.77;;;23.90;99.90;;;;;;5031364;28;20014;-55
2021/07/07 12:45:06;;;;;;;4.50;1.75;;;23.80;99.90;;;;;;5031677;28;20359;-55
2021/07/07 12:47:31;;;;;;;3.45;1.77;;;23.60;99.90;;;;;;5031390;28;20025;-56